Aeroporto :
LOGIN :

Iscrizione | Disclaimer

   EN    FR    IT 

 










Sommario :    VFR   VFR Marginale   IFR   IFR Intensivo   IFR Molto Intensivo
Visibilità : 
Base nubi : 
>= 8 km
>= 3000ft
5 / 8 km
1000 / 3000 ft
1500m / 5 km
500 / 1000 ft
800 / 1500m
200 / 500 ft
< 800m
< 200 ft
Simboli :   Temporali  Nebbia  Neve Forte  Precipitazioni Forti  Vento > 20 kt
SIGMETs :   Varie  Temporali  Ghiacco  Turbolenza  Onda orograficha  Ceneri Vulcaniche






- Altitudine del aeroporto : 42 ft
- Codice IATA : KGD


UMKK - Khrabrava - Kaliningrad

ULTIMO METAR :
  • 210530Z 26012G17MPS 9999 OVC010 06/04 Q1029 R24/19//95 NOSIG RMK QFE770/1027

METARs OBSOLETI :
  • 210500Z 26013MPS 9999 OVC010 06/03 Q1029 R24/19//95 NOSIG RMK QFE771/1028
  • 210430Z 26012G17MPS 9999 OVC010 06/03 Q1029 R24/19//95 NOSIG RMK QFE771/1028
  • 210400Z 26013G18MPS 9999 OVC010 06/04 Q1029 R24/19//95 NOSIG RMK QFE771/1028
  • 210330Z 27013G18MPS 9999 OVC010 06/04 Q1030 R24/19//95 NOSIG RMK QFE771/1029
  • 210300Z 26013G19MPS 9999 OVC010 06/04 Q1030 R24/19//95 NOSIG RMK QFE772/1029

TAF TAF UMKK
Valido dal 21 a 06 ore il 22 a 06 ore UTC


210457Z 2106/2206 26013G18MPS 9999 OVC010
TEMPO 2106/2116 28015G22MPS 4000 -RA BKN004
BECMG 2116/2118 27008G16MPS BKN011
TEMPO 2118/2203 -SHRA SCT006 BKN012CB



MetMap, La meteo Aeronautica in un colpo d'occhio ! - Copyright ORBIFLY Dicembre 2007 - Disclaimer

ORBIFLY MET'MAP TEAM :

Programmazione e sviluppo : Alexandra Zaïnal
Concezione : Baudouin d'Aumeries
Aiuto per la programmazione : Marc-Olivier Méhu
Supporto tecnico e logistico : Manuel Goepfert
Aiuto per la traduzione : Arnaldo La Scala

Contatto : metmap@orbifly.com




FONTI E CREDITI :

   NOAA